La Palma > ESTACION METEOROLÓGICA Barlovento

DATOS ACTUALES Online

Ultima actulizacion 2 minutos

18.6 ºC

Temperatura

100

Humedad (%)

1015.9

Presión (mb)

0.3

Precipitación (mm)

12.9 SE

Viento (Km/h)

DATOS DIARIOS

Temperatura últimas 24 horas (ºC)

Humedad últimas 24 horas (%)

Presión atmosférica últimas 24 horas (mb)

Precipitaciones últimas 23 horas (mm)

Viento últimas 24 horas (Km/h)

Hora Temperatura (°C) ºC Precipitación (mm) mm Presión (mb) mb Humedad (%) % Viento (Km/h) km/h
25 - 00:00 18.1 0 1020 91 25.7 SE
25 - 01:00 18.1 0 1019 94 14.5 SE
25 - 02:00 18.3 0 1019 89 22.5 SE
25 - 03:00 18.2 0 1018 90 20.9 SSE
25 - 04:00 18.2 0 1018 95 16.1 SE
25 - 05:00 18.2 0 1018 93 20.9 SE
25 - 06:00 18.3 0 1017 92 16.1 SE
25 - 07:00 18.4 0 1018 94 17.7 SE
25 - 08:00 17.9 1 1018 99 24.1 SE
25 - 09:00 17.8 2.3 1019 98 20.9 SE
25 - 10:00 18.7 2.3 1019 93 9.7 N
25 - 11:00 17.8 4.3 1019 99 17.7 ESE
25 - 12:00 17.5 5.1 1019 100 19.3 SE
25 - 13:00 17.2 8.1 1019 100 12.9 S
25 - 14:00 17.8 9.9 1018 100 14.5 SSE
25 - 15:00 18.1 10.9 1017 100 17.7 SSE
25 - 16:00 17.9 12.4 1017 100 19.3 SE
25 - 17:00 18.1 13 1017 100 19.3 N
25 - 18:00 18.6 16.8 1017 100 29 ESE
25 - 19:00 18.4 23.9 1017 100 12.9 ESE
25 - 20:00 18.8 30.5 1016 100 12.9 SE
25 - 21:00 18.6 38.9 1017 100 19.3 E
25 - 22:00 18.8 47.5 1016 100 24.1 SE
25 - 23:00 18.7 52.1 1016 100 20.9 SE
26 - 00:00 18.6 0.3 1016 100 12.9 SE
Apalmet utiliza cookies propias y de terceros para mejorar la usabilidad y la experiencia web. Política de cookies.